sensor_id;sensor_type;location;lat;lon;timestamp;temperature;humidity
27376;DHT22;14844;51.302;6.354;2022-10-04T00:00:37;10.00;99.90
27376;DHT22;14844;51.302;6.354;2022-10-04T00:03:09;10.00;99.90
27376;DHT22;14844;51.302;6.354;2022-10-04T00:05:36;10.10;99.90
27376;DHT22;14844;51.302;6.354;2022-10-04T00:08:19;10.20;99.90
27376;DHT22;14844;51.302;6.354;2022-10-04T00:10:46;10.20;99.90
27376;DHT22;14844;51.302;6.354;2022-10-04T00:13:23;10.20;99.90
27376;DHT22;14844;51.302;6.354;2022-10-04T00:15:50;10.10;99.90
27376;DHT22;14844;51.302;6.354;2022-10-04T00:18:20;10.00;99.90
27376;DHT22;14844;51.302;6.354;2022-10-04T00:25:50;9.90;99.90
27376;DHT22;14844;51.302;6.354;2022-10-04T00:31:05;9.80;99.90
27376;DHT22;14844;51.302;6.354;2022-10-04T00:33:37;9.80;99.90
27376;DHT22;14844;51.302;6.354;2022-10-04T00:36:46;9.80;99.90
27376;DHT22;14844;51.302;6.354;2022-10-04T00:39:22;9.80;99.90
27376;DHT22;14844;51.302;6.354;2022-10-04T00:44:40;9.80;99.90
27376;DHT22;14844;51.302;6.354;2022-10-04T00:47:23;10.00;99.90
27376;DHT22;14844;51.302;6.354;2022-10-04T00:49:55;10.00;99.90
27376;DHT22;14844;51.302;6.354;2022-10-04T00:52:29;10.00;99.90
27376;DHT22;14844;51.302;6.354;2022-10-04T00:55:01;10.00;99.90
27376;DHT22;14844;51.302;6.354;2022-10-04T00:57:30;10.00;99.90
27376;DHT22;14844;51.302;6.354;2022-10-04T01:00:03;9.90;99.90
27376;DHT22;14844;51.302;6.354;2022-10-04T01:05:14;9.80;99.90
27376;DHT22;14844;51.302;6.354;2022-10-04T01:07:45;9.80;99.90
27376;DHT22;14844;51.302;6.354;2022-10-04T01:10:20;9.80;99.90
27376;DHT22;14844;51.302;6.354;2022-10-04T01:13:17;9.80;99.90
27376;DHT22;14844;51.302;6.354;2022-10-04T01:15:53;9.80;99.90
27376;DHT22;14844;51.302;6.354;2022-10-04T01:23:38;9.80;99.90
27376;DHT22;14844;51.302;6.354;2022-10-04T01:29:29;9.80;99.90
27376;DHT22;14844;51.302;6.354;2022-10-04T01:31:58;9.80;99.90
27376;DHT22;14844;51.302;6.354;2022-10-04T01:34:26;9.90;99.90
27376;DHT22;14844;51.302;6.354;2022-10-04T01:36:54;9.70;99.90
27376;DHT22;14844;51.302;6.354;2022-10-04T01:39:22;9.70;99.90
27376;DHT22;14844;51.302;6.354;2022-10-04T01:42:02;9.70;99.90
27376;DHT22;14844;51.302;6.354;2022-10-04T01:44:50;9.70;99.90
27376;DHT22;14844;51.302;6.354;2022-10-04T01:47:42;9.60;99.90
27376;DHT22;14844;51.302;6.354;2022-10-04T01:50:12;9.60;99.90
27376;DHT22;14844;51.302;6.354;2022-10-04T01:53:44;9.60;99.90
27376;DHT22;14844;51.302;6.354;2022-10-04T01:56:04;9.60;99.90
27376;DHT22;14844;51.302;6.354;2022-10-04T01:58:33;9.60;99.90
27376;DHT22;14844;51.302;6.354;2022-10-04T02:01:08;9.60;99.90
27376;DHT22;14844;51.302;6.354;2022-10-04T02:03:40;9.60;99.90
27376;DHT22;14844;51.302;6.354;2022-10-04T02:06:08;9.60;99.90
27376;DHT22;14844;51.302;6.354;2022-10-04T02:08:38;9.60;99.90
27376;DHT22;14844;51.302;6.354;2022-10-04T02:11:05;9.60;99.90
27376;DHT22;14844;51.302;6.354;2022-10-04T02:13:39;9.50;99.90
27376;DHT22;14844;51.302;6.354;2022-10-04T02:16:10;9.60;99.90
27376;DHT22;14844;51.302;6.354;2022-10-04T02:18:37;9.60;99.90
27376;DHT22;14844;51.302;6.354;2022-10-04T02:21:05;9.50;99.90
27376;DHT22;14844;51.302;6.354;2022-10-04T02:23:32;9.60;99.90
27376;DHT22;14844;51.302;6.354;2022-10-04T02:26:07;9.50;99.90
27376;DHT22;14844;51.302;6.354;2022-10-04T02:28:34;9.50;99.90
27376;DHT22;14844;51.302;6.354;2022-10-04T02:31:00;9.50;99.90
27376;DHT22;14844;51.302;6.354;2022-10-04T02:33:47;9.60;99.90
27376;DHT22;14844;51.302;6.354;2022-10-04T02:36:14;9.60;99.90
27376;DHT22;14844;51.302;6.354;2022-10-04T02:41:40;9.70;99.90
27376;DHT22;14844;51.302;6.354;2022-10-04T02:44:19;9.80;99.90
27376;DHT22;14844;51.302;6.354;2022-10-04T02:47:08;9.80;99.90
27376;DHT22;14844;51.302;6.354;2022-10-04T02:49:41;9.80;99.90
27376;DHT22;14844;51.302;6.354;2022-10-04T02:52:22;9.80;99.90
27376;DHT22;14844;51.302;6.354;2022-10-04T02:55:34;9.80;99.90
27376;DHT22;14844;51.302;6.354;2022-10-04T02:57:53;9.70;99.90
27376;DHT22;14844;51.302;6.354;2022-10-04T03:00:25;9.60;99.90
27376;DHT22;14844;51.302;6.354;2022-10-04T03:05:44;9.50;99.90
27376;DHT22;14844;51.302;6.354;2022-10-04T03:08:10;9.40;99.90
27376;DHT22;14844;51.302;6.354;2022-10-04T03:10:37;9.30;99.90
27376;DHT22;14844;51.302;6.354;2022-10-04T03:13:03;9.30;99.90
27376;DHT22;14844;51.302;6.354;2022-10-04T03:15:29;9.20;99.90
27376;DHT22;14844;51.302;6.354;2022-10-04T03:17:55;9.20;99.90
27376;DHT22;14844;51.302;6.354;2022-10-04T03:20:21;9.10;99.90
27376;DHT22;14844;51.302;6.354;2022-10-04T03:22:54;9.10;99.90
27376;DHT22;14844;51.302;6.354;2022-10-04T03:25:38;9.00;99.90
27376;DHT22;14844;51.302;6.354;2022-10-04T03:28:05;9.10;99.90
27376;DHT22;14844;51.302;6.354;2022-10-04T03:30:33;9.00;99.90
27376;DHT22;14844;51.302;6.354;2022-10-04T03:33:01;9.00;99.90
27376;DHT22;14844;51.302;6.354;2022-10-04T03:35:35;8.90;99.90
27376;DHT22;14844;51.302;6.354;2022-10-04T03:38:05;9.00;99.90
27376;DHT22;14844;51.302;6.354;2022-10-04T03:40:35;9.10;99.90
27376;DHT22;14844;51.302;6.354;2022-10-04T03:43:03;9.10;99.90
27376;DHT22;14844;51.302;6.354;2022-10-04T03:45:31;9.00;99.90
27376;DHT22;14844;51.302;6.354;2022-10-04T03:48:04;8.80;99.90
27376;DHT22;14844;51.302;6.354;2022-10-04T03:50:34;8.80;99.90
27376;DHT22;14844;51.302;6.354;2022-10-04T03:53:08;8.70;99.90
27376;DHT22;14844;51.302;6.354;2022-10-04T03:55:39;8.70;99.90
27376;DHT22;14844;51.302;6.354;2022-10-04T03:58:10;8.70;99.90
27376;DHT22;14844;51.302;6.354;2022-10-04T04:00:41;8.70;99.90
27376;DHT22;14844;51.302;6.354;2022-10-04T04:03:14;8.70;99.90
27376;DHT22;14844;51.302;6.354;2022-10-04T04:05:49;8.70;99.90
27376;DHT22;14844;51.302;6.354;2022-10-04T04:08:33;8.70;99.90
27376;DHT22;14844;51.302;6.354;2022-10-04T04:11:02;8.70;99.90
27376;DHT22;14844;51.302;6.354;2022-10-04T04:16:02;8.70;99.90
27376;DHT22;14844;51.302;6.354;2022-10-04T04:18:33;8.70;99.90
27376;DHT22;14844;51.302;6.354;2022-10-04T04:21:02;8.70;99.90
27376;DHT22;14844;51.302;6.354;2022-10-04T04:23:38;8.60;99.90
27376;DHT22;14844;51.302;6.354;2022-10-04T04:28:54;8.60;99.90
27376;DHT22;14844;51.302;6.354;2022-10-04T04:31:33;8.50;99.90
27376;DHT22;14844;51.302;6.354;2022-10-04T04:34:04;8.50;99.90
27376;DHT22;14844;51.302;6.354;2022-10-04T04:36:40;8.40;99.90
27376;DHT22;14844;51.302;6.354;2022-10-04T04:39:23;8.30;99.90
27376;DHT22;14844;51.302;6.354;2022-10-04T04:44:30;8.30;99.90
27376;DHT22;14844;51.302;6.354;2022-10-04T04:46:56;8.30;99.90
27376;DHT22;14844;51.302;6.354;2022-10-04T04:49:26;8.30;99.90
27376;DHT22;14844;51.302;6.354;2022-10-04T04:51:54;8.20;99.90
27376;DHT22;14844;51.302;6.354;2022-10-04T04:54:24;8.20;99.90
27376;DHT22;14844;51.302;6.354;2022-10-04T04:56:52;8.20;99.90
27376;DHT22;14844;51.302;6.354;2022-10-04T04:59:20;8.20;99.90
27376;DHT22;14844;51.302;6.354;2022-10-04T05:01:47;8.20;99.90
27376;DHT22;14844;51.302;6.354;2022-10-04T05:04:20;8.20;99.90
27376;DHT22;14844;51.302;6.354;2022-10-04T05:07:14;8.20;99.90
27376;DHT22;14844;51.302;6.354;2022-10-04T05:09:40;8.20;99.90
27376;DHT22;14844;51.302;6.354;2022-10-04T05:12:13;8.20;99.90
27376;DHT22;14844;51.302;6.354;2022-10-04T05:14:45;8.10;99.90
27376;DHT22;14844;51.302;6.354;2022-10-04T05:17:26;8.10;99.90
27376;DHT22;14844;51.302;6.354;2022-10-04T05:19:57;8.10;99.90
27376;DHT22;14844;51.302;6.354;2022-10-04T05:22:24;8.10;99.90
27376;DHT22;14844;51.302;6.354;2022-10-04T05:24:54;8.10;99.90
27376;DHT22;14844;51.302;6.354;2022-10-04T05:27:26;8.10;99.90
27376;DHT22;14844;51.302;6.354;2022-10-04T05:32:43;8.00;99.90
27376;DHT22;14844;51.302;6.354;2022-10-04T05:35:21;8.00;99.90
27376;DHT22;14844;51.302;6.354;2022-10-04T05:40:44;7.90;99.90
27376;DHT22;14844;51.302;6.354;2022-10-04T05:46:13;7.90;99.90
27376;DHT22;14844;51.302;6.354;2022-10-04T05:48:41;7.90;99.90
27376;DHT22;14844;51.302;6.354;2022-10-04T05:51:28;7.80;99.90
27376;DHT22;14844;51.302;6.354;2022-10-04T05:53:58;7.80;99.90
27376;DHT22;14844;51.302;6.354;2022-10-04T05:56:36;7.80;99.90
27376;DHT22;14844;51.302;6.354;2022-10-04T05:59:22;7.80;99.90
27376;DHT22;14844;51.302;6.354;2022-10-04T06:05:17;7.90;99.90
27376;DHT22;14844;51.302;6.354;2022-10-04T06:07:56;7.90;99.90
27376;DHT22;14844;51.302;6.354;2022-10-04T06:10:45;8.00;99.90
27376;DHT22;14844;51.302;6.354;2022-10-04T06:19:55;8.20;99.90
27376;DHT22;14844;51.302;6.354;2022-10-04T06:22:19;8.30;99.90
27376;DHT22;14844;51.302;6.354;2022-10-04T06:24:55;8.30;99.90
27376;DHT22;14844;51.302;6.354;2022-10-04T06:30:03;8.50;99.90
27376;DHT22;14844;51.302;6.354;2022-10-04T06:44:01;9.10;99.90
27376;DHT22;14844;51.302;6.354;2022-10-04T06:46:33;9.20;99.90
27376;DHT22;14844;51.302;6.354;2022-10-04T06:58:34;9.50;99.90
27376;DHT22;14844;51.302;6.354;2022-10-04T07:01:26;9.60;99.90
27376;DHT22;14844;51.302;6.354;2022-10-04T07:06:31;9.70;99.90
27376;DHT22;14844;51.302;6.354;2022-10-04T07:08:59;9.80;99.90
27376;DHT22;14844;51.302;6.354;2022-10-04T07:16:35;9.90;99.90
27376;DHT22;14844;51.302;6.354;2022-10-04T07:24:22;10.00;99.90
27376;DHT22;14844;51.302;6.354;2022-10-04T07:26:50;10.10;99.90
27376;DHT22;14844;51.302;6.354;2022-10-04T07:29:32;10.10;99.90
27376;DHT22;14844;51.302;6.354;2022-10-04T07:37:09;10.40;99.90
27376;DHT22;14844;51.302;6.354;2022-10-04T07:39:51;10.60;99.90
27376;DHT22;14844;51.302;6.354;2022-10-04T07:45:01;11.00;99.90
27376;DHT22;14844;51.302;6.354;2022-10-04T07:47:28;11.20;99.90
27376;DHT22;14844;51.302;6.354;2022-10-04T07:49:55;11.40;99.90
27376;DHT22;14844;51.302;6.354;2022-10-04T08:00:18;12.00;99.90
27376;DHT22;14844;51.302;6.354;2022-10-04T08:03:16;12.30;99.90
27376;DHT22;14844;51.302;6.354;2022-10-04T08:05:53;12.40;99.90
27376;DHT22;14844;51.302;6.354;2022-10-04T08:11:44;12.60;99.90
27376;DHT22;14844;51.302;6.354;2022-10-04T08:14:38;12.70;99.90
27376;DHT22;14844;51.302;6.354;2022-10-04T08:17:31;12.80;99.90
27376;DHT22;14844;51.302;6.354;2022-10-04T08:20:37;12.90;99.90
27376;DHT22;14844;51.302;6.354;2022-10-04T08:32:00;14.00;99.90
27376;DHT22;14844;51.302;6.354;2022-10-04T08:34:32;14.20;99.90
27376;DHT22;14844;51.302;6.354;2022-10-04T08:46:03;15.10;99.90
27376;DHT22;14844;51.302;6.354;2022-10-04T08:57:35;16.10;99.90
27376;DHT22;14844;51.302;6.354;2022-10-04T09:12:08;16.60;99.90
27376;DHT22;14844;51.302;6.354;2022-10-04T09:17:21;16.70;99.90
27376;DHT22;14844;51.302;6.354;2022-10-04T09:27:57;17.00;99.90
27376;DHT22;14844;51.302;6.354;2022-10-04T09:30:51;17.00;99.90
27376;DHT22;14844;51.302;6.354;2022-10-04T09:41:50;17.60;99.90
27376;DHT22;14844;51.302;6.354;2022-10-04T09:44:46;17.70;99.90
27376;DHT22;14844;51.302;6.354;2022-10-04T10:04:52;17.60;99.90
27376;DHT22;14844;51.302;6.354;2022-10-04T10:10:30;17.80;99.90
27376;DHT22;14844;51.302;6.354;2022-10-04T10:13:27;17.70;99.90
27376;DHT22;14844;51.302;6.354;2022-10-04T10:19:12;17.60;99.90
27376;DHT22;14844;51.302;6.354;2022-10-04T10:21:44;17.60;99.90
27376;DHT22;14844;51.302;6.354;2022-10-04T10:24:46;17.40;99.90
27376;DHT22;14844;51.302;6.354;2022-10-04T10:30:40;17.70;99.90
27376;DHT22;14844;51.302;6.354;2022-10-04T10:39:21;17.80;99.90
27376;DHT22;14844;51.302;6.354;2022-10-04T10:48:13;18.30;99.90
27376;DHT22;14844;51.302;6.354;2022-10-04T10:51:00;18.60;99.90
27376;DHT22;14844;51.302;6.354;2022-10-04T10:56:35;18.70;99.90
27376;DHT22;14844;51.302;6.354;2022-10-04T10:59:56;18.70;99.90
27376;DHT22;14844;51.302;6.354;2022-10-04T11:09:07;19.20;99.90
27376;DHT22;14844;51.302;6.354;2022-10-04T11:15:04;19.60;99.90
27376;DHT22;14844;51.302;6.354;2022-10-04T11:28:53;19.40;99.90
27376;DHT22;14844;51.302;6.354;2022-10-04T11:31:38;19.60;99.90
27376;DHT22;14844;51.302;6.354;2022-10-04T11:42:27;19.10;99.90
27376;DHT22;14844;51.302;6.354;2022-10-04T11:44:59;19.20;99.90
27376;DHT22;14844;51.302;6.354;2022-10-04T11:50:27;19.40;99.90
27376;DHT22;14844;51.302;6.354;2022-10-04T11:53:40;19.40;99.90
27376;DHT22;14844;51.302;6.354;2022-10-04T11:59:19;19.40;99.90
27376;DHT22;14844;51.302;6.354;2022-10-04T12:02:23;19.60;99.90
27376;DHT22;14844;51.302;6.354;2022-10-04T12:26:53;19.90;99.90
27376;DHT22;14844;51.302;6.354;2022-10-04T12:29:31;19.90;99.90
27376;DHT22;14844;51.302;6.354;2022-10-04T12:32:10;19.90;99.90
27376;DHT22;14844;51.302;6.354;2022-10-04T12:37:58;20.30;99.90
27376;DHT22;14844;51.302;6.354;2022-10-04T12:51:10;19.90;99.30
27376;DHT22;14844;51.302;6.354;2022-10-04T12:54:00;19.80;98.60
27376;DHT22;14844;51.302;6.354;2022-10-04T13:04:37;20.00;97.10
27376;DHT22;14844;51.302;6.354;2022-10-04T13:07:39;20.10;97.40
27376;DHT22;14844;51.302;6.354;2022-10-04T13:10:15;20.10;96.10
27376;DHT22;14844;51.302;6.354;2022-10-04T13:20:50;20.10;96.30
27376;DHT22;14844;51.302;6.354;2022-10-04T13:23:46;20.00;96.80
27376;DHT22;14844;51.302;6.354;2022-10-04T13:26:27;20.00;97.70
27376;DHT22;14844;51.302;6.354;2022-10-04T13:29:05;20.30;98.90
27376;DHT22;14844;51.302;6.354;2022-10-04T13:31:50;20.30;96.80
27376;DHT22;14844;51.302;6.354;2022-10-04T13:46:06;20.00;96.30
27376;DHT22;14844;51.302;6.354;2022-10-04T13:48:46;20.00;97.90
27376;DHT22;14844;51.302;6.354;2022-10-04T13:54:27;19.90;96.70
27376;DHT22;14844;51.302;6.354;2022-10-04T13:57:30;19.90;96.70
27376;DHT22;14844;51.302;6.354;2022-10-04T14:00:45;19.80;96.50
27376;DHT22;14844;51.302;6.354;2022-10-04T14:03:39;19.90;97.00
27376;DHT22;14844;51.302;6.354;2022-10-04T14:14:52;19.80;96.50
27376;DHT22;14844;51.302;6.354;2022-10-04T14:28:49;19.80;95.40
27376;DHT22;14844;51.302;6.354;2022-10-04T14:31:57;19.80;96.20
27376;DHT22;14844;51.302;6.354;2022-10-04T14:51:59;20.00;95.80
27376;DHT22;14844;51.302;6.354;2022-10-04T15:06:09;19.80;97.80
27376;DHT22;14844;51.302;6.354;2022-10-04T15:09:43;19.90;97.70
27376;DHT22;14844;51.302;6.354;2022-10-04T15:11:40;19.80;97.00
27376;DHT22;14844;51.302;6.354;2022-10-04T15:17:08;19.50;97.80
27376;DHT22;14844;51.302;6.354;2022-10-04T15:22:39;19.60;98.50
27376;DHT22;14844;51.302;6.354;2022-10-04T15:34:12;20.30;98.50
27376;DHT22;14844;51.302;6.354;2022-10-04T15:37:02;20.50;98.30
27376;DHT22;14844;51.302;6.354;2022-10-04T15:39:48;20.50;98.00
27376;DHT22;14844;51.302;6.354;2022-10-04T15:44:56;20.10;99.30
27376;DHT22;14844;51.302;6.354;2022-10-04T15:56:23;19.80;99.60
27376;DHT22;14844;51.302;6.354;2022-10-04T16:02:01;19.60;99.90
27376;DHT22;14844;51.302;6.354;2022-10-04T16:04:56;19.40;99.90
27376;DHT22;14844;51.302;6.354;2022-10-04T16:10:24;19.30;99.90
27376;DHT22;14844;51.302;6.354;2022-10-04T16:13:00;19.00;99.90
27376;DHT22;14844;51.302;6.354;2022-10-04T16:15:39;18.90;99.90
27376;DHT22;14844;51.302;6.354;2022-10-04T16:18:25;18.70;99.90
27376;DHT22;14844;51.302;6.354;2022-10-04T16:21:05;18.50;99.90
27376;DHT22;14844;51.302;6.354;2022-10-04T16:23:37;18.20;99.90
27376;DHT22;14844;51.302;6.354;2022-10-04T16:29:11;17.60;99.90
27376;DHT22;14844;51.302;6.354;2022-10-04T16:31:54;17.50;99.90
27376;DHT22;14844;51.302;6.354;2022-10-04T16:37:17;17.10;99.90
27376;DHT22;14844;51.302;6.354;2022-10-04T16:39:51;16.90;99.90
27376;DHT22;14844;51.302;6.354;2022-10-04T16:56:23;15.80;99.90
27376;DHT22;14844;51.302;6.354;2022-10-04T16:59:10;15.60;99.90
27376;DHT22;14844;51.302;6.354;2022-10-04T17:01:57;15.30;99.90
27376;DHT22;14844;51.302;6.354;2022-10-04T17:06:59;14.80;99.90
27376;DHT22;14844;51.302;6.354;2022-10-04T17:12:06;14.60;99.90
27376;DHT22;14844;51.302;6.354;2022-10-04T17:17:35;14.50;99.90
27376;DHT22;14844;51.302;6.354;2022-10-04T17:26:20;14.40;99.90
27376;DHT22;14844;51.302;6.354;2022-10-04T17:40:19;13.40;99.90
27376;DHT22;14844;51.302;6.354;2022-10-04T17:43:20;13.20;99.90
27376;DHT22;14844;51.302;6.354;2022-10-04T17:46:07;13.00;99.90
27376;DHT22;14844;51.302;6.354;2022-10-04T17:51:42;13.00;99.90
27376;DHT22;14844;51.302;6.354;2022-10-04T17:54:33;13.00;99.90
27376;DHT22;14844;51.302;6.354;2022-10-04T17:57:46;13.00;99.90
27376;DHT22;14844;51.302;6.354;2022-10-04T18:00:16;13.30;99.90
27376;DHT22;14844;51.302;6.354;2022-10-04T18:03:04;13.50;99.90
27376;DHT22;14844;51.302;6.354;2022-10-04T18:11:01;13.90;99.90
27376;DHT22;14844;51.302;6.354;2022-10-04T18:13:37;13.80;99.90
27376;DHT22;14844;51.302;6.354;2022-10-04T18:16:25;13.80;99.90
27376;DHT22;14844;51.302;6.354;2022-10-04T18:18:52;13.80;99.90
27376;DHT22;14844;51.302;6.354;2022-10-04T18:21:29;13.70;99.90
27376;DHT22;14844;51.302;6.354;2022-10-04T18:26:22;13.50;99.90
27376;DHT22;14844;51.302;6.354;2022-10-04T18:28:49;13.50;99.90
27376;DHT22;14844;51.302;6.354;2022-10-04T18:31:31;13.40;99.90
27376;DHT22;14844;51.302;6.354;2022-10-04T18:34:18;13.40;99.90
27376;DHT22;14844;51.302;6.354;2022-10-04T18:39:46;13.50;99.90
27376;DHT22;14844;51.302;6.354;2022-10-04T18:42:29;13.60;99.90
27376;DHT22;14844;51.302;6.354;2022-10-04T18:45:04;13.60;99.90
27376;DHT22;14844;51.302;6.354;2022-10-04T18:47:43;13.50;99.90
27376;DHT22;14844;51.302;6.354;2022-10-04T18:53:16;13.60;99.90
27376;DHT22;14844;51.302;6.354;2022-10-04T19:02:03;13.60;99.90
27376;DHT22;14844;51.302;6.354;2022-10-04T19:05:01;13.50;99.90
27376;DHT22;14844;51.302;6.354;2022-10-04T19:07:36;13.50;99.90
27376;DHT22;14844;51.302;6.354;2022-10-04T19:10:28;13.40;99.90
27376;DHT22;14844;51.302;6.354;2022-10-04T19:13:26;13.30;99.90
27376;DHT22;14844;51.302;6.354;2022-10-04T19:19:05;13.30;99.90
27376;DHT22;14844;51.302;6.354;2022-10-04T19:27:26;13.50;99.90
27376;DHT22;14844;51.302;6.354;2022-10-04T19:30:09;13.50;99.90
27376;DHT22;14844;51.302;6.354;2022-10-04T19:44:10;13.20;99.90
27376;DHT22;14844;51.302;6.354;2022-10-04T19:49:00;12.90;99.90
27376;DHT22;14844;51.302;6.354;2022-10-04T19:51:42;12.80;99.90
27376;DHT22;14844;51.302;6.354;2022-10-04T19:54:13;12.80;99.90
27376;DHT22;14844;51.302;6.354;2022-10-04T19:56:45;12.70;99.90
27376;DHT22;14844;51.302;6.354;2022-10-04T19:59:22;12.50;99.90
27376;DHT22;14844;51.302;6.354;2022-10-04T20:01:49;12.40;99.90
27376;DHT22;14844;51.302;6.354;2022-10-04T20:04:17;12.30;99.90
27376;DHT22;14844;51.302;6.354;2022-10-04T20:07:05;12.30;99.90
27376;DHT22;14844;51.302;6.354;2022-10-04T20:12:38;12.30;99.90
27376;DHT22;14844;51.302;6.354;2022-10-04T20:15:59;12.30;99.90
27376;DHT22;14844;51.302;6.354;2022-10-04T20:23:48;12.10;99.90
27376;DHT22;14844;51.302;6.354;2022-10-04T20:26:37;12.20;99.90
27376;DHT22;14844;51.302;6.354;2022-10-04T20:32:03;12.40;99.90
27376;DHT22;14844;51.302;6.354;2022-10-04T20:34:47;12.40;99.90
27376;DHT22;14844;51.302;6.354;2022-10-04T20:37:13;12.30;99.90
27376;DHT22;14844;51.302;6.354;2022-10-04T20:44:55;12.10;99.90
27376;DHT22;14844;51.302;6.354;2022-10-04T20:53:14;12.00;99.90
27376;DHT22;14844;51.302;6.354;2022-10-04T20:55:41;12.00;99.90
27376;DHT22;14844;51.302;6.354;2022-10-04T20:58:27;11.90;99.90
27376;DHT22;14844;51.302;6.354;2022-10-04T21:01:22;11.80;99.90
27376;DHT22;14844;51.302;6.354;2022-10-04T21:06:55;11.80;99.90
27376;DHT22;14844;51.302;6.354;2022-10-04T21:09:21;11.70;99.90
27376;DHT22;14844;51.302;6.354;2022-10-04T21:11:50;11.80;99.90
27376;DHT22;14844;51.302;6.354;2022-10-04T21:14:24;11.70;99.90
27376;DHT22;14844;51.302;6.354;2022-10-04T21:16:55;11.80;99.90
27376;DHT22;14844;51.302;6.354;2022-10-04T21:22:00;11.70;99.90
27376;DHT22;14844;51.302;6.354;2022-10-04T21:24:37;11.70;99.90
27376;DHT22;14844;51.302;6.354;2022-10-04T21:27:05;11.70;99.90
27376;DHT22;14844;51.302;6.354;2022-10-04T21:29:32;11.80;99.90
27376;DHT22;14844;51.302;6.354;2022-10-04T21:31:58;11.80;99.90
27376;DHT22;14844;51.302;6.354;2022-10-04T21:34:24;11.80;99.90
27376;DHT22;14844;51.302;6.354;2022-10-04T21:36:50;11.80;99.90
27376;DHT22;14844;51.302;6.354;2022-10-04T21:39:15;11.80;99.90
27376;DHT22;14844;51.302;6.354;2022-10-04T21:41:41;11.70;99.90
27376;DHT22;14844;51.302;6.354;2022-10-04T21:44:07;11.70;99.90
27376;DHT22;14844;51.302;6.354;2022-10-04T21:46:33;11.70;99.90
27376;DHT22;14844;51.302;6.354;2022-10-04T21:48:58;11.60;99.90
27376;DHT22;14844;51.302;6.354;2022-10-04T21:51:24;11.60;99.90
27376;DHT22;14844;51.302;6.354;2022-10-04T21:53:49;11.60;99.90
27376;DHT22;14844;51.302;6.354;2022-10-04T21:56:15;11.70;99.90
27376;DHT22;14844;51.302;6.354;2022-10-04T21:58:40;11.60;99.90
27376;DHT22;14844;51.302;6.354;2022-10-04T22:01:06;11.60;99.90
27376;DHT22;14844;51.302;6.354;2022-10-04T22:03:32;11.70;99.90
27376;DHT22;14844;51.302;6.354;2022-10-04T22:05:58;11.70;99.90
27376;DHT22;14844;51.302;6.354;2022-10-04T22:08:23;11.70;99.90
27376;DHT22;14844;51.302;6.354;2022-10-04T22:10:49;11.70;99.90
27376;DHT22;14844;51.302;6.354;2022-10-04T22:13:14;11.70;99.90
27376;DHT22;14844;51.302;6.354;2022-10-04T22:15:40;11.70;99.90
27376;DHT22;14844;51.302;6.354;2022-10-04T22:18:06;11.70;99.90
27376;DHT22;14844;51.302;6.354;2022-10-04T22:20:31;11.70;99.90
27376;DHT22;14844;51.302;6.354;2022-10-04T22:22:57;11.80;99.90
27376;DHT22;14844;51.302;6.354;2022-10-04T22:25:25;11.80;99.90
27376;DHT22;14844;51.302;6.354;2022-10-04T22:27:51;11.90;99.90
27376;DHT22;14844;51.302;6.354;2022-10-04T22:30:21;12.00;99.90
27376;DHT22;14844;51.302;6.354;2022-10-04T22:32:47;12.00;99.90
27376;DHT22;14844;51.302;6.354;2022-10-04T22:35:15;12.10;99.90
27376;DHT22;14844;51.302;6.354;2022-10-04T22:37:41;12.10;99.90
27376;DHT22;14844;51.302;6.354;2022-10-04T22:40:20;12.10;99.90
27376;DHT22;14844;51.302;6.354;2022-10-04T22:42:49;12.10;99.90
27376;DHT22;14844;51.302;6.354;2022-10-04T22:45:19;12.00;99.90
27376;DHT22;14844;51.302;6.354;2022-10-04T22:47:46;12.10;99.90
27376;DHT22;14844;51.302;6.354;2022-10-04T22:50:31;12.10;99.90
27376;DHT22;14844;51.302;6.354;2022-10-04T22:53:03;12.00;99.90
27376;DHT22;14844;51.302;6.354;2022-10-04T22:55:33;12.10;99.90
27376;DHT22;14844;51.302;6.354;2022-10-04T22:58:00;12.10;99.90
27376;DHT22;14844;51.302;6.354;2022-10-04T23:00:25;12.00;99.90
27376;DHT22;14844;51.302;6.354;2022-10-04T23:02:51;12.10;99.90
27376;DHT22;14844;51.302;6.354;2022-10-04T23:05:18;12.20;99.90
27376;DHT22;14844;51.302;6.354;2022-10-04T23:07:45;12.20;99.90
27376;DHT22;14844;51.302;6.354;2022-10-04T23:10:12;12.20;99.90
27376;DHT22;14844;51.302;6.354;2022-10-04T23:12:38;12.30;99.90
27376;DHT22;14844;51.302;6.354;2022-10-04T23:15:05;12.30;99.90
27376;DHT22;14844;51.302;6.354;2022-10-04T23:17:35;12.30;99.90
27376;DHT22;14844;51.302;6.354;2022-10-04T23:20:13;12.30;99.90
27376;DHT22;14844;51.302;6.354;2022-10-04T23:22:46;12.40;99.90
27376;DHT22;14844;51.302;6.354;2022-10-04T23:25:30;12.40;99.90
27376;DHT22;14844;51.302;6.354;2022-10-04T23:27:57;12.40;99.90
27376;DHT22;14844;51.302;6.354;2022-10-04T23:30:25;12.50;99.90
27376;DHT22;14844;51.302;6.354;2022-10-04T23:32:52;12.50;99.90
27376;DHT22;14844;51.302;6.354;2022-10-04T23:35:25;12.60;99.90
27376;DHT22;14844;51.302;6.354;2022-10-04T23:37:54;12.70;99.90
27376;DHT22;14844;51.302;6.354;2022-10-04T23:40:21;12.70;99.90
27376;DHT22;14844;51.302;6.354;2022-10-04T23:42:49;12.80;99.90
27376;DHT22;14844;51.302;6.354;2022-10-04T23:45:20;12.80;99.90
27376;DHT22;14844;51.302;6.354;2022-10-04T23:47:48;12.90;99.90
27376;DHT22;14844;51.302;6.354;2022-10-04T23:50:29;13.00;99.90
27376;DHT22;14844;51.302;6.354;2022-10-04T23:52:57;13.00;99.90
27376;DHT22;14844;51.302;6.354;2022-10-04T23:55:35;13.00;99.90
27376;DHT22;14844;51.302;6.354;2022-10-04T23:58:08;13.00;99.90
